メインページ
METAR-TAF:

METAR-TAF

空港 :

Orcas Island Airport

Eastsound, ワシントン, アメリカ合衆国

緯度: 48-42-29N, 経度: 122-54-37W, 海抜: 9m

現時点の気象観測

当レポートは15分前の03:15(UTC)に作成
無風
気温 22°C
湿度 60%
気圧 1019 hPa
視程: 16.1km
晴天

METAR: KORS 230315Z AUTO 00000KT 10SM CLR 22/14 A3009 RMK AO2

時間: 20:30 (03:30 UTC)


TAF: 見つかりません

4,000以上の空港の気象観測と天気予報(METAR報とTAF報)

利用可能な観測所は地図上に黄色い丸と赤い丸で示す。

丸の上にカーソルを重ねると観測所名を参照できる。

次にクリックすると気象観測と天気予報を参照できる。

マップの切り替え:黒色「×」印の緑ボタンをクリックして拡大、「-」印の緑ボタンをクリックして縮小、緑色の三角印をクリックして隣りの地図に切り替え


METAR-TAF: